sensor_id;sensor_type;location;lat;lon;timestamp;pressure;altitude;pressure_sealevel;temperature;humidity
76024;BME280;64719;52.124;6.226;2022-12-11T00:01:55;101335.63;;;-0.33;100.00
76024;BME280;64719;52.124;6.226;2022-12-11T00:04:22;101338.28;;;-0.33;100.00
76024;BME280;64719;52.124;6.226;2022-12-11T00:06:49;101332.44;;;-0.37;100.00
76024;BME280;64719;52.124;6.226;2022-12-11T00:09:15;101332.44;;;-0.37;100.00
76024;BME280;64719;52.124;6.226;2022-12-11T00:11:43;101337.22;;;-0.40;100.00
76024;BME280;64719;52.124;6.226;2022-12-11T00:14:10;101331.44;;;-0.36;100.00
76024;BME280;64719;52.124;6.226;2022-12-11T00:16:36;101328.22;;;-0.39;100.00
76024;BME280;64719;52.124;6.226;2022-12-11T00:19:03;101327.09;;;-0.37;100.00
76024;BME280;64719;52.124;6.226;2022-12-11T00:21:30;101329.78;;;-0.37;100.00
76024;BME280;64719;52.124;6.226;2022-12-11T00:23:56;101332.13;;;-0.34;100.00
76024;BME280;64719;52.124;6.226;2022-12-11T00:26:23;101333.09;;;-0.35;100.00
76024;BME280;64719;52.124;6.226;2022-12-11T00:28:53;101325.66;;;-0.31;100.00
76024;BME280;64719;52.124;6.226;2022-12-11T00:31:21;101328.16;;;-0.30;100.00
76024;BME280;64719;52.124;6.226;2022-12-11T00:33:48;101324.50;;;-0.29;100.00
76024;BME280;64719;52.124;6.226;2022-12-11T00:36:17;101323.00;;;-0.31;100.00
76024;BME280;64719;52.124;6.226;2022-12-11T00:38:44;101321.31;;;-0.32;100.00
76024;BME280;64719;52.124;6.226;2022-12-11T00:41:11;101323.84;;;-0.31;100.00
76024;BME280;64719;52.124;6.226;2022-12-11T00:43:38;101316.66;;;-0.30;100.00
76024;BME280;64719;52.124;6.226;2022-12-11T00:46:05;101324.50;;;-0.29;100.00
76024;BME280;64719;52.124;6.226;2022-12-11T00:48:32;101325.34;;;-0.28;100.00
76024;BME280;64719;52.124;6.226;2022-12-11T00:50:59;101327.31;;;-0.30;100.00
76024;BME280;64719;52.124;6.226;2022-12-11T00:53:26;101323.69;;;-0.29;100.00
76024;BME280;64719;52.124;6.226;2022-12-11T00:55:52;101322.53;;;-0.27;100.00
76024;BME280;64719;52.124;6.226;2022-12-11T00:58:19;101315.69;;;-0.29;100.00
76024;BME280;64719;52.124;6.226;2022-12-11T01:00:46;101319.56;;;-0.24;100.00
76024;BME280;64719;52.124;6.226;2022-12-11T01:03:16;101319.41;;;-0.22;100.00
76024;BME280;64719;52.124;6.226;2022-12-11T01:05:50;101319.41;;;-0.22;100.00
76024;BME280;64719;52.124;6.226;2022-12-11T01:08:17;101323.59;;;-0.20;100.00
76024;BME280;64719;52.124;6.226;2022-12-11T01:10:43;101312.13;;;-0.20;100.00
76024;BME280;64719;52.124;6.226;2022-12-11T01:13:10;101316.47;;;-0.19;100.00
76024;BME280;64719;52.124;6.226;2022-12-11T01:15:38;101315.44;;;-0.18;100.00
76024;BME280;64719;52.124;6.226;2022-12-11T01:18:05;101304.78;;;-0.18;100.00
76024;BME280;64719;52.124;6.226;2022-12-11T01:20:33;101311.97;;;-0.19;100.00
76024;BME280;64719;52.124;6.226;2022-12-11T01:23:00;101309.16;;;-0.17;100.00
76024;BME280;64719;52.124;6.226;2022-12-11T01:25:27;101310.81;;;-0.16;100.00
76024;BME280;64719;52.124;6.226;2022-12-11T01:27:54;101314.34;;;-0.16;100.00
76024;BME280;64719;52.124;6.226;2022-12-11T01:30:23;101314.34;;;-0.16;100.00
76024;BME280;64719;52.124;6.226;2022-12-11T01:32:49;101314.19;;;-0.14;100.00
76024;BME280;64719;52.124;6.226;2022-12-11T01:35:17;101308.84;;;-0.14;100.00
76024;BME280;64719;52.124;6.226;2022-12-11T01:37:46;101304.50;;;-0.15;100.00
76024;BME280;64719;52.124;6.226;2022-12-11T01:40:13;101299.84;;;-0.13;100.00
76024;BME280;64719;52.124;6.226;2022-12-11T01:42:41;101305.34;;;-0.15;100.00
76024;BME280;64719;52.124;6.226;2022-12-11T01:45:26;101294.97;;;-0.18;100.00
76024;BME280;64719;52.124;6.226;2022-12-11T01:47:57;101299.69;;;-0.12;100.00
76024;BME280;64719;52.124;6.226;2022-12-11T01:50:25;101300.84;;;-0.14;100.00
76024;BME280;64719;52.124;6.226;2022-12-11T01:52:54;101287.38;;;-0.13;100.00
76024;BME280;64719;52.124;6.226;2022-12-11T01:55:20;101297.88;;;-0.11;100.00
76024;BME280;64719;52.124;6.226;2022-12-11T01:57:48;101299.53;;;-0.10;100.00
76024;BME280;64719;52.124;6.226;2022-12-11T02:00:16;101298.53;;;-0.09;100.00
76024;BME280;64719;52.124;6.226;2022-12-11T02:02:42;101293.22;;;-0.09;100.00
76024;BME280;64719;52.124;6.226;2022-12-11T02:05:09;101294.75;;;-0.07;100.00
76024;BME280;64719;52.124;6.226;2022-12-11T02:07:37;101292.41;;;-0.10;100.00
76024;BME280;64719;52.124;6.226;2022-12-11T02:10:07;101295.88;;;-0.09;100.00
76024;BME280;64719;52.124;6.226;2022-12-11T02:12:39;101292.91;;;-0.06;100.00
76024;BME280;64719;52.124;6.226;2022-12-11T02:15:11;101291.94;;;-0.05;100.00
76024;BME280;64719;52.124;6.226;2022-12-11T02:17:43;101297.56;;;-0.08;100.00
76024;BME280;64719;52.124;6.226;2022-12-11T02:20:17;101296.41;;;-0.06;100.00
76024;BME280;64719;52.124;6.226;2022-12-11T02:23:03;101296.41;;;-0.06;100.00
76024;BME280;64719;52.124;6.226;2022-12-11T02:25:36;101286.59;;;-0.05;100.00
76024;BME280;64719;52.124;6.226;2022-12-11T02:28:17;101299.78;;;-0.04;100.00
76024;BME280;64719;52.124;6.226;2022-12-11T02:30:47;101300.59;;;-0.03;100.00
76024;BME280;64719;52.124;6.226;2022-12-11T02:33:16;101297.13;;;-0.04;100.00
76024;BME280;64719;52.124;6.226;2022-12-11T02:35:46;101297.13;;;-0.04;100.00
76024;BME280;64719;52.124;6.226;2022-12-11T02:38:19;101297.94;;;-0.03;100.00
76024;BME280;64719;52.124;6.226;2022-12-11T02:40:50;101300.31;;;0.00;100.00
76024;BME280;64719;52.124;6.226;2022-12-11T02:43:20;101294.16;;;-0.01;100.00
76024;BME280;64719;52.124;6.226;2022-12-11T02:45:49;101289.78;;;-0.02;100.00
76024;BME280;64719;52.124;6.226;2022-12-11T02:48:18;101286.00;;;0.01;100.00
76024;BME280;64719;52.124;6.226;2022-12-11T02:50:50;101287.66;;;0.02;100.00
76024;BME280;64719;52.124;6.226;2022-12-11T02:53:21;101283.16;;;0.03;100.00
76024;BME280;64719;52.124;6.226;2022-12-11T02:55:54;101289.19;;;0.05;100.00
76024;BME280;64719;52.124;6.226;2022-12-11T02:58:26;101281.03;;;0.06;100.00
76024;BME280;64719;52.124;6.226;2022-12-11T03:00:53;101280.19;;;0.06;100.00
76024;BME280;64719;52.124;6.226;2022-12-11T03:03:20;101281.88;;;0.07;100.00
76024;BME280;64719;52.124;6.226;2022-12-11T03:05:47;101279.03;;;0.08;100.00
76024;BME280;64719;52.124;6.226;2022-12-11T03:08:14;101272.03;;;0.07;100.00
76024;BME280;64719;52.124;6.226;2022-12-11T03:10:42;101275.56;;;0.08;100.00
76024;BME280;64719;52.124;6.226;2022-12-11T03:13:09;101269.38;;;0.07;100.00
76024;BME280;64719;52.124;6.226;2022-12-11T03:15:40;101272.72;;;0.09;100.00
76024;BME280;64719;52.124;6.226;2022-12-11T03:18:16;101272.88;;;0.08;100.00
76024;BME280;64719;52.124;6.226;2022-12-11T03:20:46;101278.22;;;0.08;100.00
76024;BME280;64719;52.124;6.226;2022-12-11T03:23:21;101278.88;;;0.10;100.00
76024;BME280;64719;52.124;6.226;2022-12-11T03:25:55;101274.56;;;0.09;100.00
76024;BME280;64719;52.124;6.226;2022-12-11T03:28:28;101274.25;;;0.12;100.00
76024;BME280;64719;52.124;6.226;2022-12-11T03:30:57;101277.75;;;0.12;100.00
76024;BME280;64719;52.124;6.226;2022-12-11T03:33:31;101284.06;;;0.11;100.00
76024;BME280;64719;52.124;6.226;2022-12-11T03:36:03;101277.75;;;0.12;100.00
76024;BME280;64719;52.124;6.226;2022-12-11T03:38:35;101276.75;;;0.13;100.00
76024;BME280;64719;52.124;6.226;2022-12-11T03:41:03;101278.72;;;0.11;100.00
76024;BME280;64719;52.124;6.226;2022-12-11T03:43:33;101284.75;;;0.13;100.00
76024;BME280;64719;52.124;6.226;2022-12-11T03:46:02;101282.94;;;0.14;100.00
76024;BME280;64719;52.124;6.226;2022-12-11T03:48:31;101279.44;;;0.13;100.00
76024;BME280;64719;52.124;6.226;2022-12-11T03:51:00;101270.72;;;0.11;100.00
76024;BME280;64719;52.124;6.226;2022-12-11T03:53:30;101270.56;;;0.13;100.00
76024;BME280;64719;52.124;6.226;2022-12-11T03:55:58;101268.91;;;0.12;100.00
76024;BME280;64719;52.124;6.226;2022-12-11T03:58:25;101276.06;;;0.11;100.00
76024;BME280;64719;52.124;6.226;2022-12-11T04:00:52;101266.41;;;0.10;100.00
76024;BME280;64719;52.124;6.226;2022-12-11T04:03:20;101271.44;;;0.13;100.00
76024;BME280;64719;52.124;6.226;2022-12-11T04:05:48;101267.91;;;0.13;100.00
76024;BME280;64719;52.124;6.226;2022-12-11T04:08:15;101259.25;;;0.11;100.00
76024;BME280;64719;52.124;6.226;2022-12-11T04:10:43;101260.06;;;0.11;100.00
76024;BME280;64719;52.124;6.226;2022-12-11T04:13:09;101265.78;;;0.16;100.00
76024;BME280;64719;52.124;6.226;2022-12-11T04:15:36;101263.41;;;0.13;100.00
76024;BME280;64719;52.124;6.226;2022-12-11T04:18:02;101256.25;;;0.14;100.00
76024;BME280;64719;52.124;6.226;2022-12-11T04:20:48;101258.25;;;0.12;100.00
76024;BME280;64719;52.124;6.226;2022-12-11T04:23:32;101249.22;;;0.13;100.00
76024;BME280;64719;52.124;6.226;2022-12-11T04:26:18;101250.94;;;0.14;100.00
76024;BME280;64719;52.124;6.226;2022-12-11T04:28:48;101251.09;;;0.12;100.00
76024;BME280;64719;52.124;6.226;2022-12-11T04:31:16;101242.78;;;0.15;100.00
76024;BME280;64719;52.124;6.226;2022-12-11T04:33:43;101248.25;;;0.14;100.00
76024;BME280;64719;52.124;6.226;2022-12-11T04:36:11;101247.09;;;0.16;100.00
76024;BME280;64719;52.124;6.226;2022-12-11T04:38:39;101251.59;;;0.16;100.00
76024;BME280;64719;52.124;6.226;2022-12-11T04:41:08;101246.94;;;0.18;100.00
76024;BME280;64719;52.124;6.226;2022-12-11T04:43:35;101253.13;;;0.18;100.00
76024;BME280;64719;52.124;6.226;2022-12-11T04:46:03;101249.63;;;0.18;100.00
76024;BME280;64719;52.124;6.226;2022-12-11T04:48:31;101245.13;;;0.18;100.00
76024;BME280;64719;52.124;6.226;2022-12-11T04:50:58;101247.50;;;0.21;100.00
76024;BME280;64719;52.124;6.226;2022-12-11T04:53:26;101247.81;;;0.18;100.00
76024;BME280;64719;52.124;6.226;2022-12-11T04:55:53;101245.78;;;0.20;100.00
76024;BME280;64719;52.124;6.226;2022-12-11T04:58:20;101249.31;;;0.21;100.00
76024;BME280;64719;52.124;6.226;2022-12-11T05:00:47;101238.63;;;0.21;100.00
76024;BME280;64719;52.124;6.226;2022-12-11T05:03:14;101236.13;;;0.19;100.00
76024;BME280;64719;52.124;6.226;2022-12-11T05:05:42;101229.78;;;0.20;100.00
76024;BME280;64719;52.124;6.226;2022-12-11T05:08:12;101235.81;;;0.22;100.00
76024;BME280;64719;52.124;6.226;2022-12-11T05:10:40;101233.84;;;0.24;100.00
76024;BME280;64719;52.124;6.226;2022-12-11T05:13:06;101234.97;;;0.22;100.00
76024;BME280;64719;52.124;6.226;2022-12-11T05:15:33;101232.84;;;0.25;100.00
76024;BME280;64719;52.124;6.226;2022-12-11T05:18:00;101233.00;;;0.24;100.00
76024;BME280;64719;52.124;6.226;2022-12-11T05:20:26;101231.00;;;0.26;100.00
76024;BME280;64719;52.124;6.226;2022-12-11T05:22:53;101228.19;;;0.27;100.00
76024;BME280;64719;52.124;6.226;2022-12-11T05:25:19;101236.19;;;0.27;100.00
76024;BME280;64719;52.124;6.226;2022-12-11T05:27:47;101233.53;;;0.27;100.00
76024;BME280;64719;52.124;6.226;2022-12-11T05:30:14;101232.69;;;0.27;100.00
76024;BME280;64719;52.124;6.226;2022-12-11T05:32:40;101237.00;;;0.28;100.00
76024;BME280;64719;52.124;6.226;2022-12-11T05:35:07;101224.66;;;0.27;100.00
76024;BME280;64719;52.124;6.226;2022-12-11T05:37:34;101237.16;;;0.26;100.00
76024;BME280;64719;52.124;6.226;2022-12-11T05:40:01;101229.16;;;0.26;100.00
76024;BME280;64719;52.124;6.226;2022-12-11T05:42:30;101230.00;;;0.27;100.00
76024;BME280;64719;52.124;6.226;2022-12-11T05:44:58;101226.00;;;0.23;100.00
76024;BME280;64719;52.124;6.226;2022-12-11T05:47:25;101231.16;;;0.24;100.00
76024;BME280;64719;52.124;6.226;2022-12-11T05:49:51;101230.47;;;0.22;100.00
76024;BME280;64719;52.124;6.226;2022-12-11T05:52:18;101228.66;;;0.23;100.00
76024;BME280;64719;52.124;6.226;2022-12-11T05:54:47;101232.28;;;0.22;100.00
76024;BME280;64719;52.124;6.226;2022-12-11T05:57:13;101230.16;;;0.25;100.00
76024;BME280;64719;52.124;6.226;2022-12-11T05:59:40;101231.81;;;0.26;100.00
76024;BME280;64719;52.124;6.226;2022-12-11T06:02:08;101227.34;;;0.27;100.00
76024;BME280;64719;52.124;6.226;2022-12-11T06:04:34;101230.00;;;0.27;100.00
76024;BME280;64719;52.124;6.226;2022-12-11T06:07:01;101226.81;;;0.23;100.00
76024;BME280;64719;52.124;6.226;2022-12-11T06:09:28;101230.84;;;0.27;100.00
76024;BME280;64719;52.124;6.226;2022-12-11T06:11:54;101230.31;;;0.24;100.00
76024;BME280;64719;52.124;6.226;2022-12-11T06:14:21;101226.16;;;0.21;100.00
76024;BME280;64719;52.124;6.226;2022-12-11T06:16:47;101234.81;;;0.23;100.00
76024;BME280;64719;52.124;6.226;2022-12-11T06:19:16;101230.31;;;0.24;100.00
76024;BME280;64719;52.124;6.226;2022-12-11T06:21:44;101226.81;;;0.23;100.00
76024;BME280;64719;52.124;6.226;2022-12-11T06:24:11;101231.16;;;0.24;100.00
76024;BME280;64719;52.124;6.226;2022-12-11T06:26:38;101224.97;;;0.24;100.00
76024;BME280;64719;52.124;6.226;2022-12-11T06:29:04;101224.13;;;0.23;100.00
76024;BME280;64719;52.124;6.226;2022-12-11T06:31:31;101220.50;;;0.24;100.00
76024;BME280;64719;52.124;6.226;2022-12-11T06:33:58;101224.66;;;0.27;100.00
76024;BME280;64719;52.124;6.226;2022-12-11T06:36:26;101224.81;;;0.25;100.00
76024;BME280;64719;52.124;6.226;2022-12-11T06:38:53;101229.16;;;0.26;100.00
76024;BME280;64719;52.124;6.226;2022-12-11T06:41:20;101218.66;;;0.25;100.00
76024;BME280;64719;52.124;6.226;2022-12-11T06:43:47;101215.97;;;0.25;100.00
76024;BME280;64719;52.124;6.226;2022-12-11T06:46:16;101215.00;;;0.26;100.00
76024;BME280;64719;52.124;6.226;2022-12-11T06:48:43;101216.81;;;0.25;100.00
76024;BME280;64719;52.124;6.226;2022-12-11T06:51:13;101219.50;;;0.25;100.00
76024;BME280;64719;52.124;6.226;2022-12-11T06:53:42;101220.34;;;0.26;100.00
76024;BME280;64719;52.124;6.226;2022-12-11T06:56:10;101221.84;;;0.28;100.00
76024;BME280;64719;52.124;6.226;2022-12-11T06:58:38;101234.66;;;0.25;100.00
76024;BME280;64719;52.124;6.226;2022-12-11T07:01:12;101230.00;;;0.27;100.00
76024;BME280;64719;52.124;6.226;2022-12-11T07:03:39;101229.00;;;0.28;100.00
76024;BME280;64719;52.124;6.226;2022-12-11T07:06:06;101240.38;;;0.30;100.00
76024;BME280;64719;52.124;6.226;2022-12-11T07:08:33;101237.84;;;0.28;100.00
76024;BME280;64719;52.124;6.226;2022-12-11T07:11:05;101240.69;;;0.27;100.00
76024;BME280;64719;52.124;6.226;2022-12-11T07:13:32;101245.31;;;0.25;100.00
76024;BME280;64719;52.124;6.226;2022-12-11T07:15:59;101245.31;;;0.25;100.00
76024;BME280;64719;52.124;6.226;2022-12-11T07:18:26;101245.47;;;0.23;100.00
76024;BME280;64719;52.124;6.226;2022-12-11T07:20:53;101244.03;;;0.29;100.00
76024;BME280;64719;52.124;6.226;2022-12-11T07:23:19;101245.41;;;0.33;100.00
76024;BME280;64719;52.124;6.226;2022-12-11T07:25:46;101253.56;;;0.31;100.00
76024;BME280;64719;52.124;6.226;2022-12-11T07:28:14;101246.41;;;0.32;100.00
76024;BME280;64719;52.124;6.226;2022-12-11T07:30:41;101253.41;;;0.33;100.00
76024;BME280;64719;52.124;6.226;2022-12-11T07:33:07;101258.56;;;0.34;100.00
76024;BME280;64719;52.124;6.226;2022-12-11T07:35:34;101257.06;;;0.32;100.00
76024;BME280;64719;52.124;6.226;2022-12-11T07:38:01;101251.88;;;0.30;100.00
76024;BME280;64719;52.124;6.226;2022-12-11T07:40:28;101255.06;;;0.34;100.00
76024;BME280;64719;52.124;6.226;2022-12-11T07:42:54;101247.91;;;0.34;100.00
76024;BME280;64719;52.124;6.226;2022-12-11T07:45:22;101257.56;;;0.35;100.00
76024;BME280;64719;52.124;6.226;2022-12-11T07:47:50;101252.25;;;0.35;100.00
76024;BME280;64719;52.124;6.226;2022-12-11T07:50:17;101247.75;;;0.36;100.00
76024;BME280;64719;52.124;6.226;2022-12-11T07:52:43;101253.09;;;0.36;100.00
76024;BME280;64719;52.124;6.226;2022-12-11T07:55:10;101253.25;;;0.34;100.00
76024;BME280;64719;52.124;6.226;2022-12-11T07:57:36;101255.75;;;0.36;100.00
76024;BME280;64719;52.124;6.226;2022-12-11T08:00:04;101261.94;;;0.36;100.00
76024;BME280;64719;52.124;6.226;2022-12-11T08:02:32;101254.44;;;0.40;100.00
76024;BME280;64719;52.124;6.226;2022-12-11T08:04:59;101254.44;;;0.40;100.00
76024;BME280;64719;52.124;6.226;2022-12-11T08:07:25;101255.44;;;0.39;100.00
76024;BME280;64719;52.124;6.226;2022-12-11T08:09:52;101261.09;;;0.36;100.00
76024;BME280;64719;52.124;6.226;2022-12-11T08:12:18;101255.59;;;0.37;100.00
76024;BME280;64719;52.124;6.226;2022-12-11T08:14:45;101258.66;;;0.42;100.00
76024;BME280;64719;52.124;6.226;2022-12-11T08:17:12;101254.28;;;0.41;100.00
76024;BME280;64719;52.124;6.226;2022-12-11T08:19:39;101259.28;;;0.36;100.00
76024;BME280;64719;52.124;6.226;2022-12-11T08:22:06;101255.81;;;0.44;100.00
76024;BME280;64719;52.124;6.226;2022-12-11T08:24:33;101260.16;;;0.45;100.00
76024;BME280;64719;52.124;6.226;2022-12-11T08:26:59;101260.31;;;0.43;100.00
76024;BME280;64719;52.124;6.226;2022-12-11T08:29:26;101258.50;;;0.44;100.00
76024;BME280;64719;52.124;6.226;2022-12-11T08:31:52;101262.13;;;0.43;100.00
76024;BME280;64719;52.124;6.226;2022-12-11T08:34:19;101261.97;;;0.44;100.00
76024;BME280;64719;52.124;6.226;2022-12-11T08:36:47;101261.97;;;0.44;100.00
76024;BME280;64719;52.124;6.226;2022-12-11T08:39:14;101265.50;;;0.45;100.00
76024;BME280;64719;52.124;6.226;2022-12-11T08:41:40;101259.84;;;0.48;100.00
76024;BME280;64719;52.124;6.226;2022-12-11T08:44:11;101256.00;;;0.50;100.00
76024;BME280;64719;52.124;6.226;2022-12-11T08:46:37;101255.84;;;0.52;100.00
76024;BME280;64719;52.124;6.226;2022-12-11T08:49:04;101256.00;;;0.50;100.00
76024;BME280;64719;52.124;6.226;2022-12-11T08:51:30;101260.22;;;0.53;100.00
76024;BME280;64719;52.124;6.226;2022-12-11T08:53:59;101254.03;;;0.52;100.00
76024;BME280;64719;52.124;6.226;2022-12-11T08:56:27;101250.34;;;0.53;100.00
76024;BME280;64719;52.124;6.226;2022-12-11T08:58:54;101249.22;;;0.56;100.00
76024;BME280;64719;52.124;6.226;2022-12-11T09:01:22;101249.06;;;0.57;100.00
76024;BME280;64719;52.124;6.226;2022-12-11T09:03:50;101254.56;;;0.56;100.00
76024;BME280;64719;52.124;6.226;2022-12-11T09:06:19;101255.38;;;0.56;100.00
76024;BME280;64719;52.124;6.226;2022-12-11T09:08:47;101260.56;;;0.58;100.00
76024;BME280;64719;52.124;6.226;2022-12-11T09:11:17;101255.69;;;0.53;99.94
76024;BME280;64719;52.124;6.226;2022-12-11T09:13:44;101247.53;;;0.55;100.00
76024;BME280;64719;52.124;6.226;2022-12-11T09:16:13;101253.03;;;0.53;99.20
76024;BME280;64719;52.124;6.226;2022-12-11T09:18:40;101247.84;;;0.52;99.33
76024;BME280;64719;52.124;6.226;2022-12-11T09:21:09;101249.53;;;0.53;99.29
76024;BME280;64719;52.124;6.226;2022-12-11T09:23:37;101251.91;;;0.56;99.08
76024;BME280;64719;52.124;6.226;2022-12-11T09:26:05;101248.06;;;0.58;98.96
76024;BME280;64719;52.124;6.226;2022-12-11T09:28:33;101243.72;;;0.57;98.76
76024;BME280;64719;52.124;6.226;2022-12-11T09:31:00;101249.38;;;0.54;98.84
76024;BME280;64719;52.124;6.226;2022-12-11T09:33:26;101246.88;;;0.53;98.78
76024;BME280;64719;52.124;6.226;2022-12-11T09:35:56;101242.19;;;0.55;98.87
76024;BME280;64719;52.124;6.226;2022-12-11T09:38:23;101247.53;;;0.55;98.39
76024;BME280;64719;52.124;6.226;2022-12-11T09:40:50;101235.72;;;0.57;98.63
76024;BME280;64719;52.124;6.226;2022-12-11T09:43:21;101240.06;;;0.58;98.30
76024;BME280;64719;52.124;6.226;2022-12-11T09:45:57;101238.22;;;0.59;97.95
76024;BME280;64719;52.124;6.226;2022-12-11T09:48:26;101237.06;;;0.61;97.53
76024;BME280;64719;52.124;6.226;2022-12-11T09:50:54;101240.44;;;0.63;97.65
76024;BME280;64719;52.124;6.226;2022-12-11T09:53:24;101238.06;;;0.60;97.48
76024;BME280;64719;52.124;6.226;2022-12-11T09:55:55;101239.41;;;0.64;97.37
76024;BME280;64719;52.124;6.226;2022-12-11T09:58:30;101239.41;;;0.64;97.72
76024;BME280;64719;52.124;6.226;2022-12-11T10:01:07;101246.75;;;0.62;97.65
76024;BME280;64719;52.124;6.226;2022-12-11T10:03:54;101250.47;;;0.69;97.98
76024;BME280;64719;52.124;6.226;2022-12-11T10:06:28;101238.25;;;0.67;97.99
76024;BME280;64719;52.124;6.226;2022-12-11T10:09:03;101238.78;;;0.70;97.82
76024;BME280;64719;52.124;6.226;2022-12-11T10:11:47;101239.78;;;0.69;97.88
76024;BME280;64719;52.124;6.226;2022-12-11T10:14:21;101245.78;;;0.71;97.87
76024;BME280;64719;52.124;6.226;2022-12-11T10:16:57;101245.47;;;0.74;97.82
76024;BME280;64719;52.124;6.226;2022-12-11T10:19:27;101238.78;;;0.70;97.77
76024;BME280;64719;52.124;6.226;2022-12-11T10:21:55;101242.00;;;0.74;97.96
76024;BME280;64719;52.124;6.226;2022-12-11T10:24:28;101242.97;;;0.73;98.34
76024;BME280;64719;52.124;6.226;2022-12-11T10:27:13;101233.81;;;0.75;97.98
76024;BME280;64719;52.124;6.226;2022-12-11T10:29:40;101237.78;;;0.71;98.04
76024;BME280;64719;52.124;6.226;2022-12-11T10:32:15;101232.44;;;0.71;97.75
76024;BME280;64719;52.124;6.226;2022-12-11T10:34:46;101239.97;;;0.76;98.02
76024;BME280;64719;52.124;6.226;2022-12-11T10:37:14;101236.50;;;0.75;97.96
76024;BME280;64719;52.124;6.226;2022-12-11T10:39:41;101233.81;;;0.75;97.64
76024;BME280;64719;52.124;6.226;2022-12-11T10:42:15;101233.19;;;0.81;97.62
76024;BME280;64719;52.124;6.226;2022-12-11T10:44:54;101239.19;;;0.83;97.26
76024;BME280;64719;52.124;6.226;2022-12-11T10:47:22;101231.84;;;0.85;97.04
76024;BME280;64719;52.124;6.226;2022-12-11T10:49:52;101235.06;;;0.89;96.85
76024;BME280;64719;52.124;6.226;2022-12-11T10:52:21;101232.22;;;0.90;96.74
76024;BME280;64719;52.124;6.226;2022-12-11T10:54:54;101233.09;;;0.99;97.35
76024;BME280;64719;52.124;6.226;2022-12-11T10:57:27;101218.53;;;0.93;96.95
76024;BME280;64719;52.124;6.226;2022-12-11T10:59:54;101224.53;;;0.95;96.68
76024;BME280;64719;52.124;6.226;2022-12-11T11:02:25;101212.00;;;0.88;96.12
76024;BME280;64719;52.124;6.226;2022-12-11T11:04:54;101214.19;;;0.92;96.24
76024;BME280;64719;52.124;6.226;2022-12-11T11:07:24;101222.19;;;0.92;96.54
76024;BME280;64719;52.124;6.226;2022-12-11T11:10:03;101219.03;;;0.97;96.65
76024;BME280;64719;52.124;6.226;2022-12-11T11:12:36;101219.72;;;0.99;96.73
76024;BME280;64719;52.124;6.226;2022-12-11T11:15:09;101218.88;;;0.98;96.96
76024;BME280;64719;52.124;6.226;2022-12-11T11:17:43;101219.38;;;0.94;96.63
76024;BME280;64719;52.124;6.226;2022-12-11T11:20:16;101215.19;;;0.91;96.21
76024;BME280;64719;52.124;6.226;2022-12-11T11:22:44;101222.88;;;0.94;96.54
76024;BME280;64719;52.124;6.226;2022-12-11T11:25:15;101215.56;;;0.96;96.44
76024;BME280;64719;52.124;6.226;2022-12-11T11:27:44;101209.00;;;0.91;96.36
76024;BME280;64719;52.124;6.226;2022-12-11T11:30:18;101209.31;;;0.88;96.55
76024;BME280;64719;52.124;6.226;2022-12-11T11:32:46;101211.34;;;0.94;96.97
76024;BME280;64719;52.124;6.226;2022-12-11T11:35:17;101209.31;;;0.88;96.46
76024;BME280;64719;52.124;6.226;2022-12-11T11:37:46;101201.84;;;0.91;97.10
76024;BME280;64719;52.124;6.226;2022-12-11T11:40:21;101190.63;;;0.88;96.60
76024;BME280;64719;52.124;6.226;2022-12-11T11:43:00;101188.84;;;0.96;96.67
76024;BME280;64719;52.124;6.226;2022-12-11T11:45:32;101196.38;;;1.01;96.60
76024;BME280;64719;52.124;6.226;2022-12-11T11:48:23;101190.53;;;1.05;96.23
76024;BME280;64719;52.124;6.226;2022-12-11T11:50:53;101191.03;;;1.09;95.98
76024;BME280;64719;52.124;6.226;2022-12-11T11:53:24;101187.72;;;1.07;95.60
76024;BME280;64719;52.124;6.226;2022-12-11T11:55:58;101180.88;;;1.12;95.34
76024;BME280;64719;52.124;6.226;2022-12-11T11:58:35;101177.34;;;1.12;95.30
76024;BME280;64719;52.124;6.226;2022-12-11T12:01:03;101184.34;;;1.05;95.00
76024;BME280;64719;52.124;6.226;2022-12-11T12:03:31;101183.00;;;1.09;95.74
76024;BME280;64719;52.124;6.226;2022-12-11T12:06:05;101184.56;;;1.11;95.73
76024;BME280;64719;52.124;6.226;2022-12-11T12:08:41;101180.72;;;1.14;95.78
76024;BME280;64719;52.124;6.226;2022-12-11T12:11:19;101177.19;;;1.13;95.44
76024;BME280;64719;52.124;6.226;2022-12-11T12:13:57;101173.22;;;1.25;95.35
76024;BME280;64719;52.124;6.226;2022-12-11T12:16:33;101178.19;;;1.12;94.75
76024;BME280;64719;52.124;6.226;2022-12-11T12:19:13;101174.06;;;1.26;94.99
76024;BME280;64719;52.124;6.226;2022-12-11T12:21:46;101175.72;;;1.19;94.88
76024;BME280;64719;52.124;6.226;2022-12-11T12:24:23;101182.03;;;1.10;94.65
76024;BME280;64719;52.124;6.226;2022-12-11T12:26:59;101175.69;;;1.11;94.87
76024;BME280;64719;52.124;6.226;2022-12-11T12:29:42;101170.66;;;1.08;94.96
76024;BME280;64719;52.124;6.226;2022-12-11T12:32:19;101178.56;;;1.17;95.05
76024;BME280;64719;52.124;6.226;2022-12-11T12:35:00;101182.03;;;1.18;94.82
76024;BME280;64719;52.124;6.226;2022-12-11T12:37:42;101174.34;;;1.15;95.09
76024;BME280;64719;52.124;6.226;2022-12-11T12:40:17;101171.03;;;1.13;95.94
76024;BME280;64719;52.124;6.226;2022-12-11T12:42:51;101173.88;;;1.11;95.22
76024;BME280;64719;52.124;6.226;2022-12-11T12:45:28;101168.66;;;1.02;95.02
76024;BME280;64719;52.124;6.226;2022-12-11T12:47:56;101171.00;;;1.05;95.37
76024;BME280;64719;52.124;6.226;2022-12-11T12:50:26;101180.34;;;1.09;95.37
76024;BME280;64719;52.124;6.226;2022-12-11T12:52:55;101170.34;;;1.11;95.39
76024;BME280;64719;52.124;6.226;2022-12-11T12:55:24;101176.69;;;1.10;95.26
76024;BME280;64719;52.124;6.226;2022-12-11T12:57:55;101173.50;;;1.06;95.28
76024;BME280;64719;52.124;6.226;2022-12-11T13:00:27;101170.47;;;1.01;95.07
76024;BME280;64719;52.124;6.226;2022-12-11T13:02:55;101171.16;;;1.03;95.69